sensor_id;sensor_type;location;lat;lon;timestamp;pressure;altitude;pressure_sealevel;temperature;humidity
6136;BME280;24008;42.664;23.372;2024-01-07T00:01:23;93244.22;;;7.44;95.21
6136;BME280;24008;42.664;23.372;2024-01-07T00:03:51;93245.81;;;7.45;95.50
6136;BME280;24008;42.664;23.372;2024-01-07T00:06:18;93246.13;;;7.42;95.25
6136;BME280;24008;42.664;23.372;2024-01-07T00:08:45;93214.50;;;7.28;95.04
6136;BME280;24008;42.664;23.372;2024-01-07T00:11:12;93227.25;;;7.44;95.30
6136;BME280;24008;42.664;23.372;2024-01-07T00:13:39;93218.50;;;7.47;95.37
6136;BME280;24008;42.664;23.372;2024-01-07T00:16:07;92981.63;;;5.99;94.46
6136;BME280;24008;42.664;23.372;2024-01-07T00:18:34;93141.94;;;7.01;94.42
6136;BME280;24008;42.664;23.372;2024-01-07T00:21:01;93145.75;;;7.13;94.98
6136;BME280;24008;42.664;23.372;2024-01-07T00:23:27;93179.13;;;7.35;95.42
6136;BME280;24008;42.664;23.372;2024-01-07T00:25:54;93202.44;;;7.54;94.95
6136;BME280;24008;42.664;23.372;2024-01-07T00:28:21;93212.59;;;7.63;94.98
6136;BME280;24008;42.664;23.372;2024-01-07T00:30:48;93120.34;;;7.21;95.01
6136;BME280;24008;42.664;23.372;2024-01-07T00:33:16;93185.75;;;7.68;94.35
6136;BME280;24008;42.664;23.372;2024-01-07T00:35:42;93149.25;;;7.45;93.82
6136;BME280;24008;42.664;23.372;2024-01-07T00:38:10;93151.75;;;7.37;93.69
6136;BME280;24008;42.664;23.372;2024-01-07T00:40:36;93173.56;;;7.47;93.55
6136;BME280;24008;42.664;23.372;2024-01-07T00:43:03;93110.50;;;6.94;93.60
6136;BME280;24008;42.664;23.372;2024-01-07T00:45:30;93168.94;;;7.18;93.05
6136;BME280;24008;42.664;23.372;2024-01-07T00:47:57;93175.59;;;7.03;92.73
6136;BME280;24008;42.664;23.372;2024-01-07T00:50:28;93133.19;;;6.63;93.01
6136;BME280;24008;42.664;23.372;2024-01-07T00:52:54;93123.94;;;6.46;93.65
6136;BME280;24008;42.664;23.372;2024-01-07T00:55:21;93114.53;;;6.30;94.81
6136;BME280;24008;42.664;23.372;2024-01-07T00:57:49;93143.38;;;6.29;95.00
6136;BME280;24008;42.664;23.372;2024-01-07T01:00:16;93107.75;;;5.97;94.94
6136;BME280;24008;42.664;23.372;2024-01-07T01:02:43;93148.34;;;6.05;95.87
6136;BME280;24008;42.664;23.372;2024-01-07T01:05:10;93051.38;;;5.35;95.89
6136;BME280;24008;42.664;23.372;2024-01-07T01:07:38;93149.28;;;5.96;96.79
6136;BME280;24008;42.664;23.372;2024-01-07T01:10:05;93144.81;;;5.90;97.25
6136;BME280;24008;42.664;23.372;2024-01-07T01:12:32;93134.16;;;5.86;97.86
6136;BME280;24008;42.664;23.372;2024-01-07T01:14:59;93124.31;;;5.83;98.41
6136;BME280;24008;42.664;23.372;2024-01-07T01:17:26;93111.00;;;5.81;98.42
6136;BME280;24008;42.664;23.372;2024-01-07T01:19:52;93116.22;;;5.79;99.11
6136;BME280;24008;42.664;23.372;2024-01-07T01:22:19;93111.16;;;5.79;99.27
6136;BME280;24008;42.664;23.372;2024-01-07T01:24:47;93106.25;;;5.78;99.47
6136;BME280;24008;42.664;23.372;2024-01-07T01:27:14;93071.13;;;5.57;99.61
6136;BME280;24008;42.664;23.372;2024-01-07T01:29:41;92981.63;;;5.15;98.77
6136;BME280;24008;42.664;23.372;2024-01-07T01:32:07;93000.06;;;5.33;99.55
6136;BME280;24008;42.664;23.372;2024-01-07T01:34:34;93064.25;;;5.84;99.19
6136;BME280;24008;42.664;23.372;2024-01-07T01:37:01;93057.94;;;5.79;98.92
6136;BME280;24008;42.664;23.372;2024-01-07T01:39:28;93041.22;;;5.69;98.73
6136;BME280;24008;42.664;23.372;2024-01-07T01:41:56;93018.28;;;5.70;99.00
6136;BME280;24008;42.664;23.372;2024-01-07T01:44:23;93045.97;;;5.98;99.14
6136;BME280;24008;42.664;23.372;2024-01-07T01:46:52;93037.72;;;5.96;99.44
6136;BME280;24008;42.664;23.372;2024-01-07T01:49:19;93034.72;;;6.00;99.18
6136;BME280;24008;42.664;23.372;2024-01-07T01:51:46;93028.06;;;5.99;98.23
6136;BME280;24008;42.664;23.372;2024-01-07T01:54:13;92983.63;;;5.79;98.38
6136;BME280;24008;42.664;23.372;2024-01-07T01:56:40;92998.09;;;5.95;98.20
6136;BME280;24008;42.664;23.372;2024-01-07T01:59:08;93009.53;;;5.99;98.85
6136;BME280;24008;42.664;23.372;2024-01-07T02:01:35;93014.31;;;6.18;99.54
6136;BME280;24008;42.664;23.372;2024-01-07T02:04:02;92956.94;;;6.25;100.00
6136;BME280;24008;42.664;23.372;2024-01-07T02:06:28;93006.41;;;6.86;100.00
6136;BME280;24008;42.664;23.372;2024-01-07T02:08:55;92988.91;;;6.91;100.00
6136;BME280;24008;42.664;23.372;2024-01-07T02:11:22;93017.88;;;7.37;100.00
6136;BME280;24008;42.664;23.372;2024-01-07T02:13:49;93017.00;;;7.61;100.00
6136;BME280;24008;42.664;23.372;2024-01-07T02:16:17;93009.00;;;7.80;100.00
6136;BME280;24008;42.664;23.372;2024-01-07T02:18:45;92953.59;;;7.68;100.00
6136;BME280;24008;42.664;23.372;2024-01-07T02:21:13;92993.16;;;8.24;100.00
6136;BME280;24008;42.664;23.372;2024-01-07T02:23:40;92972.81;;;8.47;100.00
6136;BME280;24008;42.664;23.372;2024-01-07T02:26:08;92931.03;;;8.41;98.31
6136;BME280;24008;42.664;23.372;2024-01-07T02:28:35;92935.31;;;8.63;96.65
6136;BME280;24008;42.664;23.372;2024-01-07T02:31:02;92926.06;;;8.62;97.25
6136;BME280;24008;42.664;23.372;2024-01-07T02:33:29;92888.00;;;8.32;94.40
6136;BME280;24008;42.664;23.372;2024-01-07T02:35:56;92865.53;;;8.12;94.11
6136;BME280;24008;42.664;23.372;2024-01-07T02:38:22;92923.13;;;8.36;94.06
6136;BME280;24008;42.664;23.372;2024-01-07T02:40:49;92915.31;;;8.15;93.54
6136;BME280;24008;42.664;23.372;2024-01-07T02:43:17;92923.25;;;8.12;92.98
6136;BME280;24008;42.664;23.372;2024-01-07T02:45:44;92886.94;;;7.80;93.73
6136;BME280;24008;42.664;23.372;2024-01-07T02:48:10;92816.72;;;7.26;94.31
6136;BME280;24008;42.664;23.372;2024-01-07T02:50:37;92904.25;;;7.77;94.93
6136;BME280;24008;42.664;23.372;2024-01-07T02:53:04;92938.97;;;7.92;95.61
6136;BME280;24008;42.664;23.372;2024-01-07T02:55:30;92933.56;;;7.95;96.57
6136;BME280;24008;42.664;23.372;2024-01-07T02:57:57;92913.09;;;7.89;96.95
6136;BME280;24008;42.664;23.372;2024-01-07T03:00:25;92942.03;;;8.11;97.67
6136;BME280;24008;42.664;23.372;2024-01-07T03:02:51;92948.31;;;8.23;98.63
6136;BME280;24008;42.664;23.372;2024-01-07T03:05:18;92805.78;;;7.48;97.61
6136;BME280;24008;42.664;23.372;2024-01-07T03:07:45;92915.84;;;8.33;97.72
6136;BME280;24008;42.664;23.372;2024-01-07T03:10:12;92933.25;;;8.59;96.44
6136;BME280;24008;42.664;23.372;2024-01-07T03:12:38;92758.09;;;7.50;96.38
6136;BME280;24008;42.664;23.372;2024-01-07T03:15:06;92878.44;;;8.34;95.75
6136;BME280;24008;42.664;23.372;2024-01-07T03:17:35;92935.50;;;8.77;95.77
6136;BME280;24008;42.664;23.372;2024-01-07T03:20:02;92920.97;;;8.62;95.68
6136;BME280;24008;42.664;23.372;2024-01-07T03:22:29;92958.75;;;8.74;95.94
6136;BME280;24008;42.664;23.372;2024-01-07T03:24:55;92948.19;;;8.62;96.10
6136;BME280;24008;42.664;23.372;2024-01-07T03:27:22;92964.19;;;8.71;96.18
6136;BME280;24008;42.664;23.372;2024-01-07T03:29:49;92958.75;;;8.74;98.11
6136;BME280;24008;42.664;23.372;2024-01-07T03:32:15;92924.94;;;8.65;97.96
6136;BME280;24008;42.664;23.372;2024-01-07T03:34:44;92938.31;;;8.67;98.59
6136;BME280;24008;42.664;23.372;2024-01-07T03:37:10;92920.31;;;8.69;99.19
6136;BME280;24008;42.664;23.372;2024-01-07T03:39:37;92941.56;;;8.76;100.00
6136;BME280;24008;42.664;23.372;2024-01-07T03:42:04;92953.03;;;8.72;100.00
6136;BME280;24008;42.664;23.372;2024-01-07T03:44:36;92945.41;;;8.72;100.00
6136;BME280;24008;42.664;23.372;2024-01-07T03:47:03;92880.41;;;8.23;100.00
6136;BME280;24008;42.664;23.372;2024-01-07T03:49:30;92928.50;;;8.41;100.00
6136;BME280;24008;42.664;23.372;2024-01-07T03:51:58;92931.84;;;8.11;100.00
6136;BME280;24008;42.664;23.372;2024-01-07T03:54:24;92942.34;;;7.85;100.00
6136;BME280;24008;42.664;23.372;2024-01-07T03:56:51;92914.47;;;7.38;100.00
6136;BME280;24008;42.664;23.372;2024-01-07T03:59:18;92937.69;;;7.35;100.00
6136;BME280;24008;42.664;23.372;2024-01-07T04:01:44;92927.91;;;7.23;100.00
6136;BME280;24008;42.664;23.372;2024-01-07T04:04:11;92920.63;;;7.12;100.00
6136;BME280;24008;42.664;23.372;2024-01-07T04:06:37;92879.44;;;6.86;100.00
6136;BME280;24008;42.664;23.372;2024-01-07T04:09:05;92882.31;;;6.83;100.00
6136;BME280;24008;42.664;23.372;2024-01-07T04:11:33;92900.03;;;6.91;100.00
6136;BME280;24008;42.664;23.372;2024-01-07T04:14:05;92872.47;;;6.80;100.00
6136;BME280;24008;42.664;23.372;2024-01-07T04:16:31;92914.59;;;7.05;100.00
6136;BME280;24008;42.664;23.372;2024-01-07T04:18:58;92913.97;;;7.03;100.00
6136;BME280;24008;42.664;23.372;2024-01-07T04:21:25;92911.44;;;7.03;100.00
6136;BME280;24008;42.664;23.372;2024-01-07T04:23:51;92890.25;;;6.80;100.00
6136;BME280;24008;42.664;23.372;2024-01-07T04:26:19;92912.09;;;6.97;100.00
6136;BME280;24008;42.664;23.372;2024-01-07T04:28:46;92904.50;;;6.89;100.00
6136;BME280;24008;42.664;23.372;2024-01-07T04:31:13;92879.00;;;6.74;100.00
6136;BME280;24008;42.664;23.372;2024-01-07T04:33:39;92896.28;;;6.87;100.00
6136;BME280;24008;42.664;23.372;2024-01-07T04:36:06;92882.00;;;6.78;100.00
6136;BME280;24008;42.664;23.372;2024-01-07T04:38:34;92830.84;;;6.50;100.00
6136;BME280;24008;42.664;23.372;2024-01-07T04:41:01;92887.69;;;6.88;100.00
6136;BME280;24008;42.664;23.372;2024-01-07T04:43:29;92882.94;;;6.85;100.00
6136;BME280;24008;42.664;23.372;2024-01-07T04:45:55;92857.44;;;6.70;100.00
6136;BME280;24008;42.664;23.372;2024-01-07T04:48:22;92877.88;;;6.85;100.00
6136;BME280;24008;42.664;23.372;2024-01-07T04:50:49;92875.66;;;6.82;100.00
6136;BME280;24008;42.664;23.372;2024-01-07T04:53:15;92829.91;;;6.51;100.00
6136;BME280;24008;42.664;23.372;2024-01-07T04:55:42;92818.81;;;6.36;100.00
6136;BME280;24008;42.664;23.372;2024-01-07T04:58:09;92895.19;;;6.65;100.00
6136;BME280;24008;42.664;23.372;2024-01-07T05:00:37;92862.09;;;6.42;100.00
6136;BME280;24008;42.664;23.372;2024-01-07T05:03:04;92862.88;;;6.51;100.00
6136;BME280;24008;42.664;23.372;2024-01-07T05:05:30;92881.25;;;6.61;100.00
6136;BME280;24008;42.664;23.372;2024-01-07T05:07:57;92860.06;;;6.38;100.00
6136;BME280;24008;42.664;23.372;2024-01-07T05:10:26;92856.06;;;6.43;100.00
6136;BME280;24008;42.664;23.372;2024-01-07T05:12:52;92881.44;;;6.52;100.00
6136;BME280;24008;42.664;23.372;2024-01-07T05:15:19;92874.47;;;6.45;100.00
6136;BME280;24008;42.664;23.372;2024-01-07T05:17:47;92821.38;;;6.20;100.00
6136;BME280;24008;42.664;23.372;2024-01-07T05:20:15;92862.59;;;6.30;100.00
6136;BME280;24008;42.664;23.372;2024-01-07T05:22:42;92892.41;;;6.20;100.00
6136;BME280;24008;42.664;23.372;2024-01-07T05:25:09;92886.38;;;6.12;100.00
6136;BME280;24008;42.664;23.372;2024-01-07T05:27:35;92802.22;;;5.52;100.00
6136;BME280;24008;42.664;23.372;2024-01-07T05:30:02;92864.66;;;5.86;100.00
6136;BME280;24008;42.664;23.372;2024-01-07T05:32:29;92884.00;;;6.11;100.00
6136;BME280;24008;42.664;23.372;2024-01-07T05:34:57;92857.53;;;5.97;100.00
6136;BME280;24008;42.664;23.372;2024-01-07T05:37:24;92890.50;;;6.13;100.00
6136;BME280;24008;42.664;23.372;2024-01-07T05:39:50;92835.16;;;5.68;100.00
6136;BME280;24008;42.664;23.372;2024-01-07T05:42:17;92865.94;;;6.14;100.00
6136;BME280;24008;42.664;23.372;2024-01-07T05:44:44;92818.88;;;5.79;100.00
6136;BME280;24008;42.664;23.372;2024-01-07T05:47:10;92859.13;;;5.98;100.00
6136;BME280;24008;42.664;23.372;2024-01-07T05:49:37;92886.38;;;6.12;100.00
6136;BME280;24008;42.664;23.372;2024-01-07T05:52:05;92852.28;;;5.74;100.00
6136;BME280;24008;42.664;23.372;2024-01-07T05:54:32;92886.09;;;6.16;100.00
6136;BME280;24008;42.664;23.372;2024-01-07T05:56:59;92874.81;;;6.02;100.00
6136;BME280;24008;42.664;23.372;2024-01-07T05:59:25;92907.13;;;6.16;100.00
6136;BME280;24008;42.664;23.372;2024-01-07T06:01:58;92904.31;;;6.11;100.00
6136;BME280;24008;42.664;23.372;2024-01-07T06:04:24;92899.84;;;6.21;100.00
6136;BME280;24008;42.664;23.372;2024-01-07T06:06:51;91913.63;;;-0.02;100.00
6136;BME280;24008;42.664;23.372;2024-01-07T06:09:19;92849.31;;;6.11;100.00
6136;BME280;24008;42.664;23.372;2024-01-07T06:11:46;92841.84;;;6.10;100.00
6136;BME280;24008;42.664;23.372;2024-01-07T06:14:13;92877.66;;;6.39;100.00
6136;BME280;24008;42.664;23.372;2024-01-07T06:16:40;92867.81;;;6.36;100.00
6136;BME280;24008;42.664;23.372;2024-01-07T06:19:07;92869.06;;;6.40;100.00
6136;BME280;24008;42.664;23.372;2024-01-07T06:21:34;92865.75;;;6.40;100.00
6136;BME280;24008;42.664;23.372;2024-01-07T06:24:01;92845.31;;;6.25;100.00
6136;BME280;24008;42.664;23.372;2024-01-07T06:26:29;92872.88;;;6.44;100.00
6136;BME280;24008;42.664;23.372;2024-01-07T06:28:55;92858.00;;;6.33;100.00
6136;BME280;24008;42.664;23.372;2024-01-07T06:31:22;92839.91;;;6.28;100.00
6136;BME280;24008;42.664;23.372;2024-01-07T06:33:49;92882.84;;;6.54;100.00
6136;BME280;24008;42.664;23.372;2024-01-07T06:36:15;92774.50;;;5.83;100.00
6136;BME280;24008;42.664;23.372;2024-01-07T06:38:42;92885.84;;;6.58;100.00
6136;BME280;24008;42.664;23.372;2024-01-07T06:41:09;92870.03;;;6.47;100.00
6136;BME280;24008;42.664;23.372;2024-01-07T06:43:37;92898.53;;;6.66;100.00
6136;BME280;24008;42.664;23.372;2024-01-07T06:46:04;92904.41;;;6.66;100.00
6136;BME280;24008;42.664;23.372;2024-01-07T06:48:31;92910.09;;;6.68;100.00
6136;BME280;24008;42.664;23.372;2024-01-07T06:50:58;92914.72;;;6.73;100.00
6136;BME280;24008;42.664;23.372;2024-01-07T06:53:24;92915.94;;;6.77;100.00
6136;BME280;24008;42.664;23.372;2024-01-07T06:55:51;92853.22;;;6.38;100.00
6136;BME280;24008;42.664;23.372;2024-01-07T06:58:18;92908.34;;;6.85;100.00
6136;BME280;24008;42.664;23.372;2024-01-07T07:00:46;92872.19;;;6.67;100.00
6136;BME280;24008;42.664;23.372;2024-01-07T07:03:13;92913.22;;;6.95;100.00
6136;BME280;24008;42.664;23.372;2024-01-07T07:05:40;92914.94;;;7.02;100.00
6136;BME280;24008;42.664;23.372;2024-01-07T07:08:07;92865.06;;;6.62;100.00
6136;BME280;24008;42.664;23.372;2024-01-07T07:10:34;92912.97;;;7.20;100.00
6136;BME280;24008;42.664;23.372;2024-01-07T07:13:00;92898.66;;;7.28;100.00
6136;BME280;24008;42.664;23.372;2024-01-07T07:15:27;92853.97;;;7.10;100.00
6136;BME280;24008;42.664;23.372;2024-01-07T07:17:56;92862.28;;;7.27;100.00
6136;BME280;24008;42.664;23.372;2024-01-07T07:20:24;92813.28;;;7.18;100.00
6136;BME280;24008;42.664;23.372;2024-01-07T07:22:54;92796.63;;;6.77;100.00
6136;BME280;24008;42.664;23.372;2024-01-07T07:25:21;92847.56;;;7.14;100.00
6136;BME280;24008;42.664;23.372;2024-01-07T07:27:47;92893.34;;;7.68;100.00
6136;BME280;24008;42.664;23.372;2024-01-07T07:30:14;92894.50;;;7.88;100.00
6136;BME280;24008;42.664;23.372;2024-01-07T07:32:41;92870.97;;;7.86;100.00
6136;BME280;24008;42.664;23.372;2024-01-07T07:35:09;92881.94;;;8.10;100.00
6136;BME280;24008;42.664;23.372;2024-01-07T07:37:37;92906.38;;;8.19;100.00
6136;BME280;24008;42.664;23.372;2024-01-07T07:40:05;92884.69;;;8.23;100.00
6136;BME280;24008;42.664;23.372;2024-01-07T07:42:31;92891.16;;;8.34;100.00
6136;BME280;24008;42.664;23.372;2024-01-07T07:44:58;92895.06;;;8.59;100.00
6136;BME280;24008;42.664;23.372;2024-01-07T07:47:25;92811.44;;;8.18;100.00
6136;BME280;24008;42.664;23.372;2024-01-07T07:49:51;92896.25;;;8.86;100.00
6136;BME280;24008;42.664;23.372;2024-01-07T07:52:19;92869.53;;;8.82;100.00
6136;BME280;24008;42.664;23.372;2024-01-07T07:54:48;92812.63;;;8.45;100.00
6136;BME280;24008;42.664;23.372;2024-01-07T07:57:15;92879.72;;;9.11;99.95
6136;BME280;24008;42.664;23.372;2024-01-07T07:59:42;92882.00;;;9.21;99.02
6136;BME280;24008;42.664;23.372;2024-01-07T08:02:08;92875.81;;;9.30;96.56
6136;BME280;24008;42.664;23.372;2024-01-07T08:04:35;92877.16;;;9.41;95.31
6136;BME280;24008;42.664;23.372;2024-01-07T08:07:02;92771.25;;;8.73;93.95
6136;BME280;24008;42.664;23.372;2024-01-07T08:09:30;92891.03;;;9.53;92.76
6136;BME280;24008;42.664;23.372;2024-01-07T08:11:57;92874.03;;;9.60;92.53
6136;BME280;24008;42.664;23.372;2024-01-07T08:14:24;92875.06;;;9.65;91.41
6136;BME280;24008;42.664;23.372;2024-01-07T08:16:51;92864.56;;;9.54;91.97
6136;BME280;24008;42.664;23.372;2024-01-07T08:19:18;92882.44;;;9.75;91.12
6136;BME280;24008;42.664;23.372;2024-01-07T08:21:45;92867.59;;;9.64;90.58
6136;BME280;24008;42.664;23.372;2024-01-07T08:24:12;92867.44;;;9.51;90.49
6136;BME280;24008;42.664;23.372;2024-01-07T08:26:40;92800.47;;;9.06;90.95
6136;BME280;24008;42.664;23.372;2024-01-07T08:29:07;92864.63;;;9.46;89.88
6136;BME280;24008;42.664;23.372;2024-01-07T08:31:33;92857.28;;;9.36;90.25
6136;BME280;24008;42.664;23.372;2024-01-07T08:34:00;92827.53;;;9.07;91.06
6136;BME280;24008;42.664;23.372;2024-01-07T08:36:27;92823.69;;;8.96;91.88
6136;BME280;24008;42.664;23.372;2024-01-07T08:38:54;92842.91;;;9.14;92.26
6136;BME280;24008;42.664;23.372;2024-01-07T08:41:21;92886.28;;;9.35;92.30
6136;BME280;24008;42.664;23.372;2024-01-07T08:43:49;92857.47;;;9.20;93.26
6136;BME280;24008;42.664;23.372;2024-01-07T08:46:16;92892.34;;;9.49;93.82
6136;BME280;24008;42.664;23.372;2024-01-07T08:48:42;92885.91;;;9.53;94.00
6136;BME280;24008;42.664;23.372;2024-01-07T08:51:09;92881.72;;;9.66;93.73
6136;BME280;24008;42.664;23.372;2024-01-07T08:53:35;92847.00;;;9.65;94.42
6136;BME280;24008;42.664;23.372;2024-01-07T08:56:03;92876.91;;;10.14;93.49
6136;BME280;24008;42.664;23.372;2024-01-07T08:58:30;92874.69;;;10.26;93.34
6136;BME280;24008;42.664;23.372;2024-01-07T09:00:58;92902.44;;;10.35;92.88
6136;BME280;24008;42.664;23.372;2024-01-07T09:03:25;92870.78;;;10.30;91.34
6136;BME280;24008;42.664;23.372;2024-01-07T09:05:52;92869.25;;;10.35;91.46
6136;BME280;24008;42.664;23.372;2024-01-07T09:08:19;92875.44;;;10.48;90.62
6136;BME280;24008;42.664;23.372;2024-01-07T09:10:45;92848.16;;;10.55;91.15
6136;BME280;24008;42.664;23.372;2024-01-07T09:13:12;92700.34;;;9.76;90.17
6136;BME280;24008;42.664;23.372;2024-01-07T09:15:39;92866.25;;;11.22;88.41
6136;BME280;24008;42.664;23.372;2024-01-07T09:18:07;92878.34;;;11.48;85.77
6136;BME280;24008;42.664;23.372;2024-01-07T09:20:34;92864.03;;;11.60;85.24
6136;BME280;24008;42.664;23.372;2024-01-07T09:23:00;92888.22;;;12.84;84.03
6136;BME280;24008;42.664;23.372;2024-01-07T09:25:27;92890.13;;;13.80;77.25
6136;BME280;24008;42.664;23.372;2024-01-07T09:27:54;92882.41;;;13.86;73.05
6136;BME280;24008;42.664;23.372;2024-01-07T09:30:21;92884.00;;;13.36;72.55
6136;BME280;24008;42.664;23.372;2024-01-07T09:32:47;92887.34;;;13.30;72.61
6136;BME280;24008;42.664;23.372;2024-01-07T09:35:17;92840.84;;;13.00;72.33
6136;BME280;24008;42.664;23.372;2024-01-07T09:37:43;92860.34;;;13.08;71.83
6136;BME280;24008;42.664;23.372;2024-01-07T09:40:11;92844.06;;;12.56;71.48
6136;BME280;24008;42.664;23.372;2024-01-07T09:42:38;92828.91;;;12.21;72.69
6136;BME280;24008;42.664;23.372;2024-01-07T09:45:05;92851.53;;;12.90;72.98
6136;BME280;24008;42.664;23.372;2024-01-07T09:47:32;92764.88;;;12.35;71.22
6136;BME280;24008;42.664;23.372;2024-01-07T09:49:59;92854.31;;;12.76;72.25
6136;BME280;24008;42.664;23.372;2024-01-07T09:52:28;92817.28;;;12.25;72.59
6136;BME280;24008;42.664;23.372;2024-01-07T09:54:58;92821.03;;;12.23;72.73
6136;BME280;24008;42.664;23.372;2024-01-07T09:57:25;92821.63;;;12.18;72.33
6136;BME280;24008;42.664;23.372;2024-01-07T09:59:52;92852.56;;;12.37;70.75
6136;BME280;24008;42.664;23.372;2024-01-07T10:02:20;92817.69;;;12.03;69.70
6136;BME280;24008;42.664;23.372;2024-01-07T10:04:46;92807.84;;;12.06;69.03
6136;BME280;24008;42.664;23.372;2024-01-07T10:07:13;92861.63;;;12.39;69.60
6136;BME280;24008;42.664;23.372;2024-01-07T10:09:41;92864.59;;;12.30;68.97
6136;BME280;24008;42.664;23.372;2024-01-07T10:12:09;92871.63;;;12.08;69.32
6136;BME280;24008;42.664;23.372;2024-01-07T10:14:37;92884.00;;;11.78;70.36
6136;BME280;24008;42.664;23.372;2024-01-07T10:17:14;92852.25;;;11.72;71.50
6136;BME280;24008;42.664;23.372;2024-01-07T10:19:43;92825.78;;;12.19;70.85
6136;BME280;24008;42.664;23.372;2024-01-07T10:22:12;92838.94;;;12.62;69.00
6136;BME280;24008;42.664;23.372;2024-01-07T10:24:42;92757.22;;;12.02;68.62
6136;BME280;24008;42.664;23.372;2024-01-07T10:27:09;92790.06;;;12.44;68.74
6136;BME280;24008;42.664;23.372;2024-01-07T10:29:36;92791.47;;;12.47;68.76
6136;BME280;24008;42.664;23.372;2024-01-07T10:32:04;92823.56;;;12.69;68.63
6136;BME280;24008;42.664;23.372;2024-01-07T10:34:32;92812.34;;;12.63;68.97
6136;BME280;24008;42.664;23.372;2024-01-07T10:37:00;92786.56;;;12.25;68.27
6136;BME280;24008;42.664;23.372;2024-01-07T10:39:27;92796.41;;;12.29;69.50
6136;BME280;24008;42.664;23.372;2024-01-07T10:41:56;92810.00;;;12.16;70.60
6136;BME280;24008;42.664;23.372;2024-01-07T10:44:25;92780.66;;;11.92;71.22
6136;BME280;24008;42.664;23.372;2024-01-07T10:46:54;92762.91;;;11.84;71.66
6136;BME280;24008;42.664;23.372;2024-01-07T10:49:23;92735.75;;;11.70;72.56
6136;BME280;24008;42.664;23.372;2024-01-07T10:52:04;92791.09;;;12.23;72.43
6136;BME280;24008;42.664;23.372;2024-01-07T10:54:32;92796.97;;;12.44;71.61
6136;BME280;24008;42.664;23.372;2024-01-07T10:57:06;92788.34;;;12.18;71.36
6136;BME280;24008;42.664;23.372;2024-01-07T10:59:36;92826.75;;;12.32;70.83
6136;BME280;24008;42.664;23.372;2024-01-07T11:02:03;92813.75;;;12.26;70.27
6136;BME280;24008;42.664;23.372;2024-01-07T11:04:37;92771.78;;;11.81;69.12
6136;BME280;24008;42.664;23.372;2024-01-07T11:07:13;92777.03;;;11.53;68.58
6136;BME280;24008;42.664;23.372;2024-01-07T11:09:53;92811.03;;;11.34;70.17
6136;BME280;24008;42.664;23.372;2024-01-07T11:12:23;92769.59;;;10.98;70.53
6136;BME280;24008;42.664;23.372;2024-01-07T11:14:50;92788.94;;;11.20;70.63
6136;BME280;24008;42.664;23.372;2024-01-07T11:17:39;92780.91;;;11.36;70.38
6136;BME280;24008;42.664;23.372;2024-01-07T11:20:10;92791.41;;;11.54;70.17
6136;BME280;24008;42.664;23.372;2024-01-07T11:22:39;92810.50;;;11.72;69.78
6136;BME280;24008;42.664;23.372;2024-01-07T11:25:28;92818.78;;;11.74;69.75
6136;BME280;24008;42.664;23.372;2024-01-07T11:27:57;92783.34;;;11.58;69.96
6136;BME280;24008;42.664;23.372;2024-01-07T11:30:24;92731.72;;;11.21;69.26
6136;BME280;24008;42.664;23.372;2024-01-07T11:32:56;92803.25;;;11.69;70.12
6136;BME280;24008;42.664;23.372;2024-01-07T11:35:53;92805.44;;;11.78;69.82
6136;BME280;24008;42.664;23.372;2024-01-07T11:38:21;92746.94;;;11.55;69.40
6136;BME280;24008;42.664;23.372;2024-01-07T11:40:49;92807.03;;;11.86;70.07
6136;BME280;24008;42.664;23.372;2024-01-07T11:43:18;92811.38;;;11.92;70.05
6136;BME280;24008;42.664;23.372;2024-01-07T11:45:45;92793.44;;;11.99;69.72
6136;BME280;24008;42.664;23.372;2024-01-07T11:48:12;92782.41;;;11.98;68.51
6136;BME280;24008;42.664;23.372;2024-01-07T11:50:39;92770.03;;;11.88;67.55
6136;BME280;24008;42.664;23.372;2024-01-07T11:53:06;92790.31;;;12.03;67.40
6136;BME280;24008;42.664;23.372;2024-01-07T11:55:33;92800.75;;;12.21;66.97
6136;BME280;24008;42.664;23.372;2024-01-07T11:58:02;92813.53;;;12.08;66.82
6136;BME280;24008;42.664;23.372;2024-01-07T12:00:33;92820.06;;;12.04;67.33
6136;BME280;24008;42.664;23.372;2024-01-07T12:03:01;92732.75;;;11.46;68.03
6136;BME280;24008;42.664;23.372;2024-01-07T12:05:28;92770.59;;;11.84;68.61
6136;BME280;24008;42.664;23.372;2024-01-07T12:07:58;92795.63;;;12.08;68.65
6136;BME280;24008;42.664;23.372;2024-01-07T12:10:26;92797.59;;;12.06;67.80
6136;BME280;24008;42.664;23.372;2024-01-07T12:12:54;92803.13;;;12.03;67.99
6136;BME280;24008;42.664;23.372;2024-01-07T12:15:21;92746.56;;;11.59;67.70
6136;BME280;24008;42.664;23.372;2024-01-07T12:17:57;92810.97;;;12.02;68.26
6136;BME280;24008;42.664;23.372;2024-01-07T12:20:25;92776.31;;;11.93;67.94
6136;BME280;24008;42.664;23.372;2024-01-07T12:22:52;92805.88;;;11.95;68.25
6136;BME280;24008;42.664;23.372;2024-01-07T12:25:22;92766.81;;;11.67;68.42
6136;BME280;24008;42.664;23.372;2024-01-07T12:27:49;92789.25;;;11.65;68.32
6136;BME280;24008;42.664;23.372;2024-01-07T12:30:23;92815.84;;;11.70;68.24
6136;BME280;24008;42.664;23.372;2024-01-07T12:32:51;92811.69;;;11.63;69.04
6136;BME280;24008;42.664;23.372;2024-01-07T12:35:20;92774.97;;;11.16;70.70
6136;BME280;24008;42.664;23.372;2024-01-07T12:37:47;92780.84;;;11.10;71.94
6136;BME280;24008;42.664;23.372;2024-01-07T12:40:14;92808.63;;;11.26;73.28
6136;BME280;24008;42.664;23.372;2024-01-07T12:42:42;92809.97;;;11.15;73.42
6136;BME280;24008;42.664;23.372;2024-01-07T12:45:13;92784.72;;;10.93;73.58
6136;BME280;24008;42.664;23.372;2024-01-07T12:47:40;92809.19;;;11.15;73.54
6136;BME280;24008;42.664;23.372;2024-01-07T12:50:15;92782.75;;;10.95;74.07
6136;BME280;24008;42.664;23.372;2024-01-07T12:52:43;92729.16;;;10.67;74.37
6136;BME280;24008;42.664;23.372;2024-01-07T12:55:11;92763.47;;;10.92;74.73
6136;BME280;24008;42.664;23.372;2024-01-07T12:57:37;92784.78;;;11.06;74.61
6136;BME280;24008;42.664;23.372;2024-01-07T13:00:22;92787.88;;;10.95;74.64
6136;BME280;24008;42.664;23.372;2024-01-07T13:02:49;92798.50;;;10.98;74.24
6136;BME280;24008;42.664;23.372;2024-01-07T13:05:16;92818.19;;;11.11;74.52